Time;durP1;ratioP1;P1;durP2;ratioP2;P2;SDS_P1;SDS_P2;PMS_P1;PMS_P2;Temp;Humidity;BMP_temperature;BMP_pressure;BME280_temperature;BME280_humidity;BME280_pressure;Samples;Min_cycle;Max_cycle;Signal;HPM_P1;HPM_P2
2022/07/08 00:01:00;;;;;;;5.22;3.00;;;;;;;21.14;76.67;99532.75;5078579;28;20047;-84
2022/07/08 00:03:25;;;;;;;5.38;3.65;;;;;;;21.24;78.01;99558.03;5102358;28;20119;-84
2022/07/08 00:05:51;;;;;;;6.20;3.67;;;;;;;21.29;78.07;99564.00;5089069;28;20071;-84
2022/07/08 00:08:18;;;;;;;3.80;2.53;;;;;;;21.26;77.53;99548.94;5088765;28;20475;-85
2022/07/08 00:10:44;;;;;;;3.90;2.65;;;;;;;21.08;77.18;99516.06;5094413;28;20039;-84
2022/07/08 00:13:09;;;;;;;4.57;2.95;;;;;;;21.32;75.87;99557.56;5110026;28;20031;-85
2022/07/08 00:15:34;;;;;;;40.15;3.92;;;;;;;21.38;72.88;99565.22;5108778;28;20440;-85
2022/07/08 00:18:00;;;;;;;3.67;2.28;;;;;;;21.40;71.16;99526.63;5111050;28;20489;-84
2022/07/08 00:20:25;;;;;;;2.30;1.55;;;;;;;21.66;70.50;99552.78;5109598;28;20039;-84
2022/07/08 00:22:51;;;;;;;3.47;2.65;;;;;;;21.48;70.62;99538.69;5105396;28;20040;-85
2022/07/08 00:25:16;;;;;;;3.47;2.58;;;;;;;21.46;72.27;99536.13;5089114;28;20031;-84
2022/07/08 00:27:42;;;;;;;5.55;3.47;;;;;;;21.79;73.26;99565.34;5103758;28;20032;-85
2022/07/08 00:30:08;;;;;;;3.78;2.38;;;;;;;21.50;76.32;99560.97;5111024;28;20405;-86
2022/07/08 00:32:36;;;;;;;8.77;4.28;;;;;;;21.39;77.17;99565.13;5106288;28;20024;-86
2022/07/08 00:35:01;;;;;;;5.90;3.35;;;;;;;21.24;78.29;99539.25;5095817;28;20189;-85
2022/07/08 00:37:27;;;;;;;5.45;3.10;;;;;;;21.29;77.56;99556.78;5098284;28;20529;-85
2022/07/08 00:39:52;;;;;;;4.40;2.80;;;;;;;21.09;75.35;99538.38;5071157;28;20044;-85
2022/07/08 00:42:18;;;;;;;8.38;3.28;;;;;;;21.17;72.35;99544.13;5090148;28;20039;-85
2022/07/08 00:44:43;;;;;;;2.83;1.70;;;;;;;21.18;70.63;99551.25;5108250;28;20068;-85
2022/07/08 00:47:09;;;;;;;3.70;1.98;;;;;;;21.14;70.38;99540.78;5101401;28;20031;-86
2022/07/08 00:49:35;;;;;;;3.40;2.28;;;;;;;20.93;69.81;99523.22;5089130;28;20040;-85
2022/07/08 00:52:00;;;;;;;2.13;1.30;;;;;;;21.18;70.23;99550.34;5091085;28;20093;-88
2022/07/08 00:54:26;;;;;;;3.63;1.85;;;;;;;21.20;69.75;99529.69;5109525;28;20080;-85
2022/07/08 00:56:53;;;;;;;1.60;1.25;;;;;;;21.46;69.61;99530.75;5105192;28;20140;-86
2022/07/08 00:59:19;;;;;;;2.30;1.58;;;;;;;21.62;69.10;99547.63;5108498;28;20553;-86
2022/07/08 01:01:44;;;;;;;2.25;1.30;;;;;;;21.50;68.87;99502.78;5108446;28;20063;-86
2022/07/08 01:04:10;;;;;;;3.45;1.55;;;;;;;21.63;68.81;99522.50;5108539;28;20082;-86
2022/07/08 01:06:36;;;;;;;3.58;2.30;;;;;;;21.73;68.69;99506.66;5106646;28;20035;-86
2022/07/08 01:09:02;;;;;;;4.55;2.40;;;;;;;21.84;68.88;99546.25;5088873;28;20036;-86
2022/07/08 01:11:27;;;;;;;4.43;2.42;;;;;;;21.64;69.91;99518.88;5088793;28;20063;-85
2022/07/08 01:13:54;;;;;;;3.85;2.50;;;;;;;21.59;70.58;99525.50;5107517;28;20031;-85
2022/07/08 01:16:20;;;;;;;5.00;3.00;;;;;;;21.54;71.79;99507.00;5090138;28;20082;-87
2022/07/08 01:18:45;;;;;;;6.40;3.35;;;;;;;21.62;72.46;99527.97;5107773;28;20505;-87
2022/07/08 01:21:11;;;;;;;4.95;3.58;;;;;;;21.42;72.46;99488.97;5107900;28;20031;-85
2022/07/08 01:23:36;;;;;;;6.60;3.58;;;;;;;21.68;72.78;99540.16;5092414;28;20112;-86
2022/07/08 01:26:09;;;;;;;5.22;3.25;;;;;;;21.73;72.08;99524.63;5088510;28;20037;-86
2022/07/08 01:28:35;;;;;;;5.22;2.90;;;;;;;21.74;72.50;99545.13;5087891;28;20872;-85
2022/07/08 01:31:03;;;;;;;5.75;3.42;;;;;;;21.70;72.18;99528.34;5089956;28;20421;-87
2022/07/08 01:33:29;;;;;;;4.05;3.00;;;;;;;21.74;72.70;99540.63;5107411;28;20032;-88
2022/07/08 01:35:54;;;;;;;4.20;2.75;;;;;;;21.60;73.31;99536.13;5068399;28;20051;-85
2022/07/08 01:38:20;;;;;;;5.53;3.58;;;;;;;21.54;73.92;99541.88;5096728;28;20051;-85
2022/07/08 01:40:46;;;;;;;6.20;3.63;;;;;;;21.36;74.74;99535.81;5088217;28;20421;-86
2022/07/08 01:43:12;;;;;;;4.65;2.47;;;;;;;21.37;74.59;99542.91;5087908;28;20115;-86
2022/07/08 01:45:37;;;;;;;5.28;3.72;;;;;;;21.53;74.15;99544.66;5086833;28;20898;-87
2022/07/08 01:48:03;;;;;;;4.80;3.08;;;;;;;21.40;74.71;99549.91;5096592;28;20023;-88
2022/07/08 01:50:28;;;;;;;7.78;3.72;;;;;;;21.03;75.09;99493.19;5089493;28;20039;-86
2022/07/08 01:52:54;;;;;;;5.18;3.10;;;;;;;21.01;76.04;99527.28;5107164;28;20035;-86
2022/07/08 01:55:20;;;;;;;7.15;3.65;;;;;;;21.35;75.90;99543.94;5088732;28;20035;-85
2022/07/08 01:57:45;;;;;;;6.63;4.53;;;;;;;21.49;75.12;99548.44;5088372;28;20178;-85
2022/07/08 02:00:11;;;;;;;7.05;3.92;;;;;;;21.19;75.39;99506.50;5069244;28;20523;-86
2022/07/08 02:02:37;;;;;;;6.88;3.55;;;;;;;21.52;75.54;99557.22;5088120;28;20028;-86
2022/07/08 02:05:03;;;;;;;7.03;4.90;;;;;;;21.32;75.39;99526.25;5087854;28;20038;-86
2022/07/08 02:07:31;;;;;;;6.00;3.45;;;;;;;21.05;76.55;99505.53;5069182;28;20127;-86
2022/07/08 02:09:56;;;;;;;6.00;4.05;;;;;;;21.43;75.96;99536.31;5087473;28;20035;-86
2022/07/08 02:12:22;;;;;;;6.43;3.85;;;;;;;21.43;75.58;99526.44;5102946;28;20750;-86
2022/07/08 02:14:49;;;;;;;6.57;3.17;;;;;;;21.60;75.96;99556.75;5103676;28;20409;-86
2022/07/08 02:17:17;;;;;;;5.80;3.30;;;;;;;21.61;75.43;99551.28;5087370;28;20055;-86
2022/07/08 02:19:43;;;;;;;6.43;3.92;;;;;;;21.60;75.33;99552.22;5087058;28;20132;-88
2022/07/08 02:22:09;;;;;;;7.45;3.90;;;;;;;21.82;74.56;99567.81;5087261;28;20032;-86
2022/07/08 02:24:35;;;;;;;5.68;3.05;;;;;;;21.57;74.15;99547.06;5086841;28;20043;-85
2022/07/08 02:27:01;;;;;;;6.40;3.53;;;;;;;21.54;74.15;99535.66;5106815;28;20031;-87
2022/07/08 02:29:27;;;;;;;6.60;4.43;;;;;;;21.63;74.41;99561.91;5107531;28;20027;-85
2022/07/08 02:31:52;;;;;;;9.13;4.32;;;;;;;21.56;74.78;99571.31;5104240;28;20028;-85
2022/07/08 02:34:19;;;;;;;5.78;3.17;;;;;;;21.51;75.23;99589.53;5104690;28;20058;-85
2022/07/08 02:36:44;;;;;;;5.78;3.70;;;;;;;21.44;74.92;99548.75;5108010;28;20127;-86
2022/07/08 02:39:10;;;;;;;4.10;2.42;;;;;;;21.63;75.01;99581.56;5088731;28;20150;-87
2022/07/08 02:41:38;;;;;;;6.45;3.50;;;;;;;21.66;74.73;99583.19;5108962;28;20027;-86
2022/07/08 02:44:04;;;;;;;6.28;3.53;;;;;;;21.41;74.91;99559.66;5111340;28;20076;-87
2022/07/08 02:46:29;;;;;;;6.55;3.75;;;;;;;21.65;74.90;99597.56;5108592;28;20469;-87
2022/07/08 02:48:55;;;;;;;5.25;3.00;;;;;;;21.71;74.82;99585.59;5096334;28;20036;-87
2022/07/08 02:51:21;;;;;;;8.18;4.50;;;;;;;21.25;75.81;99554.41;5107219;28;20027;-88
2022/07/08 02:53:46;;;;;;;7.20;3.53;;;;;;;21.38;76.09;99586.69;5095167;28;20536;-87
2022/07/08 02:56:11;;;;;;;5.75;3.80;;;;;;;21.51;75.83;99587.69;5086404;28;20035;-87
2022/07/08 02:58:37;;;;;;;6.60;4.03;;;;;;;21.49;76.12;99594.06;5090138;28;20038;-87
2022/07/08 03:01:02;;;;;;;5.03;3.22;;;;;;;21.54;75.77;99598.25;5098430;28;20481;-88
2022/07/08 03:03:28;;;;;;;6.10;3.90;;;;;;;21.40;76.05;99569.53;5097125;28;20085;-88
2022/07/08 03:05:53;;;;;;;7.47;5.25;;;;;;;21.33;76.33;99556.59;5104512;28;20501;-89
2022/07/08 03:08:19;;;;;;;7.28;4.38;;;;;;;21.48;76.54;99578.94;5110184;28;20050;-89
2022/07/08 03:10:45;;;;;;;7.40;4.57;;;;;;;21.43;76.08;99561.31;5105792;28;20485;-89
2022/07/08 03:13:11;;;;;;;7.28;4.25;;;;;;;21.44;75.83;99572.88;5096992;28;20036;-88
2022/07/08 03:15:36;;;;;;;5.53;3.60;;;;;;;21.01;76.75;99528.13;5083745;28;20668;-91
2022/07/08 03:18:02;;;;;;;6.60;4.28;;;;;;;21.46;76.51;99579.03;5103567;28;20043;-88
2022/07/08 03:20:27;;;;;;;5.72;3.17;;;;;;;21.49;76.38;99596.75;5111329;28;20039;-88
2022/07/08 03:22:53;;;;;;;5.90;3.65;;;;;;;21.49;75.86;99586.03;5110729;28;20032;-89
2022/07/08 03:25:19;;;;;;;4.38;2.80;;;;;;;21.69;75.73;99606.28;5110020;28;20578;-88
2022/07/08 03:27:45;;;;;;;4.80;3.33;;;;;;;21.54;76.58;99592.03;5099227;28;20120;-88
2022/07/08 03:30:10;;;;;;;6.25;4.10;;;;;;;21.68;76.74;99602.75;5090390;28;20413;-88
2022/07/08 03:32:36;;;;;;;6.45;4.25;;;;;;;21.74;75.67;99596.13;5108122;28;21219;-91
2022/07/08 03:35:02;;;;;;;6.93;4.28;;;;;;;21.61;75.65;99543.22;5110944;28;20046;-88
2022/07/08 03:37:27;;;;;;;5.05;3.53;;;;;;;21.92;75.92;99600.34;5111028;28;20031;-91
2022/07/08 03:39:55;;;;;;;5.57;3.95;;;;;;;22.07;75.28;99592.25;5110821;28;20500;-87
2022/07/08 03:42:21;;;;;;;6.10;4.40;;;;;;;21.90;76.31;99601.41;5108209;28;20092;-87
2022/07/08 03:44:47;;;;;;;7.20;4.28;;;;;;;22.17;75.79;99612.19;5093179;28;20456;-86
2022/07/08 03:47:12;;;;;;;7.70;5.75;;;;;;;21.71;76.18;99566.81;5106418;28;20031;-88
2022/07/08 03:49:38;;;;;;;7.22;4.95;;;;;;;21.86;76.10;99591.78;5112092;28;20031;-89
2022/07/08 03:52:05;;;;;;;9.20;6.07;;;;;;;21.19;77.05;99544.91;5109383;28;20126;-87
2022/07/08 03:54:30;;;;;;;8.77;5.35;;;;;;;21.21;78.95;99577.00;5109047;28;20576;-87
2022/07/08 03:56:56;;;;;;;7.38;4.30;;;;;;;21.44;78.50;99581.81;5091992;28;20040;-87
2022/07/08 03:59:22;;;;;;;7.72;4.68;;;;;;;21.58;77.69;99599.78;5089080;28;20412;-86
2022/07/08 04:01:47;;;;;;;8.75;4.65;;;;;;;21.66;77.41;99593.06;5089829;28;20028;-87
2022/07/08 04:04:13;;;;;;;5.32;4.32;;;;;;;21.62;75.89;99568.25;5104882;28;20100;-87
2022/07/08 04:06:38;;;;;;;6.90;3.65;;;;;;;21.55;76.27;99583.00;5099253;28;20055;-88
2022/07/08 04:09:04;;;;;;;5.05;3.80;;;;;;;21.23;76.99;99543.75;5108635;28;20036;-87
2022/07/08 04:11:30;;;;;;;9.32;4.70;;;;;;;21.90;76.32;99606.75;5109620;28;20028;-87
2022/07/08 04:13:56;;;;;;;6.32;4.32;;;;;;;21.86;75.71;99559.56;5109134;28;20039;-88
2022/07/08 04:16:22;;;;;;;7.22;4.40;;;;;;;22.22;74.46;99575.16;5090757;28;20038;-88
2022/07/08 04:18:48;;;;;;;8.15;4.50;;;;;;;22.40;74.11;99573.13;5109443;28;20054;-89
2022/07/08 04:21:13;;;;;;;6.75;4.65;;;;;;;22.26;74.23;99568.63;5101028;28;20691;-89
2022/07/08 04:23:40;;;;;;;8.35;5.53;;;;;;;22.31;74.40;99571.88;5089965;28;20494;-88
2022/07/08 04:26:05;;;;;;;7.05;4.15;;;;;;;22.09;76.05;99568.84;5091618;28;20064;-87
2022/07/08 04:28:31;;;;;;;7.28;4.30;;;;;;;22.28;76.79;99577.44;5107552;28;20126;-87
2022/07/08 04:30:57;;;;;;;9.52;4.50;;;;;;;22.90;73.34;99619.09;5092475;28;20036;-87
2022/07/08 04:33:23;;;;;;;6.75;4.90;;;;;;;22.95;72.85;99570.38;5088823;28;20062;-86
2022/07/08 04:35:48;;;;;;;6.20;4.65;;;;;;;23.42;71.05;99612.84;5088360;28;20159;-86
2022/07/08 04:38:14;;;;;;;7.13;4.70;;;;;;;23.47;70.19;99617.06;5105787;28;20059;-86
2022/07/08 04:40:40;;;;;;;6.80;5.38;;;;;;;23.48;69.81;99591.84;5108828;28;20059;-87
2022/07/08 04:43:06;;;;;;;6.18;4.00;;;;;;;23.44;70.72;99590.34;5107160;28;20457;-88
2022/07/08 04:45:31;;;;;;;7.65;4.25;;;;;;;23.58;68.52;99601.84;5094627;28;20043;-88
2022/07/08 04:47:57;;;;;;;5.15;3.45;;;;;;;23.64;67.98;99592.50;5096593;28;20039;-85
2022/07/08 04:50:22;;;;;;;12.07;7.30;;;;;;;23.75;67.76;99606.03;5108683;28;20031;-86
2022/07/08 04:52:48;;;;;;;8.52;5.07;;;;;;;24.00;66.92;99619.63;5099694;28;20059;-86
2022/07/08 04:55:30;;;;;;;7.10;3.45;;;;;;;23.83;66.95;99583.94;5079070;28;20436;-86
2022/07/08 04:57:58;;;;;;;6.35;4.07;;;;;;;24.06;66.56;99608.41;5088507;28;20028;-86
2022/07/08 05:00:24;;;;;;;9.57;4.22;;;;;;;24.24;65.44;99579.28;5088429;28;20036;-87
2022/07/08 05:02:50;;;;;;;8.93;4.07;;;;;;;24.53;65.57;99592.41;5096362;28;20500;-86
2022/07/08 05:05:15;;;;;;;5.10;4.03;;;;;;;24.80;63.96;99592.19;5106062;28;20040;-86
2022/07/08 05:07:41;;;;;;;7.13;5.05;;;;;;;24.72;62.11;99608.97;5107367;28;20046;-85
2022/07/08 05:10:07;;;;;;;8.25;4.50;;;;;;;25.11;62.14;99582.59;5090926;28;20086;-86
2022/07/08 05:12:32;;;;;;;5.90;3.47;;;;;;;25.02;60.64;99589.59;5106633;28;20039;-87
2022/07/08 05:14:58;;;;;;;5.80;3.53;;;;;;;24.53;62.91;99560.03;5094790;28;20464;-84
2022/07/08 05:17:23;;;;;;;5.82;4.60;;;;;;;24.61;63.21;99568.47;5087757;28;20020;-86
2022/07/08 05:19:49;;;;;;;5.78;3.92;;;;;;;24.19;63.31;99551.78;5094550;28;20030;-90
2022/07/08 05:22:14;;;;;;;6.22;4.20;;;;;;;24.58;63.34;99610.00;5107701;28;20046;-83
2022/07/08 05:24:39;;;;;;;6.03;3.75;;;;;;;25.14;62.18;99624.69;5108099;28;20028;-83
2022/07/08 05:27:06;;;;;;;10.85;7.00;;;;;;;25.26;62.41;99606.69;5108637;28;20035;-84
2022/07/08 05:29:31;;;;;;;7.50;4.93;;;;;;;25.35;60.50;99606.00;5107857;28;20036;-83
2022/07/08 05:31:57;;;;;;;6.47;3.47;;;;;;;24.33;64.27;99605.53;5106810;28;20032;-85
2022/07/08 05:34:22;;;;;;;7.72;4.10;;;;;;;24.27;64.07;99595.22;5107754;28;20061;-84
2022/07/08 05:36:48;;;;;;;5.90;4.32;;;;;;;24.54;64.66;99604.91;5108209;28;20852;-83
2022/07/08 05:39:14;;;;;;;7.85;4.53;;;;;;;24.75;66.11;99621.38;5108324;28;20077;-84
2022/07/08 05:41:40;;;;;;;8.70;4.72;;;;;;;24.92;63.27;99580.47;5108607;28;20041;-84
2022/07/08 05:44:05;;;;;;;9.80;6.75;;;;;;;24.88;63.21;99583.53;5107940;28;20035;-85
2022/07/08 05:46:31;;;;;;;58.55;26.67;;;;;;;24.74;63.61;99608.84;5107396;28;20035;-84
2022/07/08 05:48:56;;;;;;;20.70;11.43;;;;;;;24.47;65.67;99607.22;5108066;28;20066;-84
2022/07/08 05:51:22;;;;;;;12.25;8.57;;;;;;;25.30;64.66;99614.47;5107277;28;20088;-85
2022/07/08 05:53:47;;;;;;;7.28;4.57;;;;;;;25.10;62.41;99626.78;5108205;28;20031;-84
2022/07/08 05:56:13;;;;;;;17.60;6.38;;;;;;;25.01;62.66;99595.09;5107630;28;20472;-85
2022/07/08 05:58:38;;;;;;;6.00;4.45;;;;;;;25.32;63.22;99592.75;5107494;28;20024;-86
2022/07/08 06:01:04;;;;;;;8.48;6.05;;;;;;;25.78;60.27;99621.53;5108355;28;20050;-85
2022/07/08 06:03:29;;;;;;;6.97;5.18;;;;;;;26.11;58.87;99613.56;5106726;28;20088;-85
2022/07/08 06:05:55;;;;;;;7.70;4.93;;;;;;;26.52;58.44;99604.72;5107518;28;20019;-85
2022/07/08 06:08:21;;;;;;;8.68;5.40;;;;;;;26.62;57.33;99589.47;5107405;28;20054;-85
2022/07/08 06:10:46;;;;;;;7.78;5.55;;;;;;;26.87;58.98;99619.91;5107585;28;20413;-85
2022/07/08 06:13:12;;;;;;;6.80;4.80;;;;;;;27.35;57.70;99629.41;5107537;28;20031;-85
2022/07/08 06:15:37;;;;;;;7.55;5.53;;;;;;;27.09;58.36;99589.16;5107334;28;20513;-85
2022/07/08 06:18:03;;;;;;;6.85;5.18;;;;;;;26.96;57.39;99616.41;5089057;28;20066;-84
2022/07/08 06:20:29;;;;;;;6.65;4.78;;;;;;;27.31;55.87;99612.56;5107527;28;20093;-86
2022/07/08 06:22:54;;;;;;;7.80;5.40;;;;;;;27.91;55.93;99628.13;5107563;28;20035;-86
2022/07/08 06:25:20;;;;;;;7.85;5.32;;;;;;;27.56;57.87;99599.59;5107291;28;20027;-85
2022/07/08 06:27:45;;;;;;;6.72;4.53;;;;;;;28.00;53.45;99581.28;5107296;28;20030;-85
2022/07/08 06:30:11;;;;;;;6.50;4.35;;;;;;;28.31;55.18;99608.31;5107407;28;20039;-85
2022/07/08 06:32:37;;;;;;;8.85;5.88;;;;;;;28.56;52.15;99584.38;5088689;28;20552;-85
2022/07/08 06:35:02;;;;;;;6.47;4.68;;;;;;;28.34;53.30;99558.38;5107392;28;20027;-87
2022/07/08 06:37:28;;;;;;;7.65;4.47;;;;;;;27.88;52.69;99568.78;5107557;28;20055;-85
2022/07/08 06:39:54;;;;;;;5.85;4.43;;;;;;;27.87;52.30;99586.06;5107634;28;20027;-85
2022/07/08 06:42:20;;;;;;;6.03;4.22;;;;;;;27.91;52.75;99573.94;5107381;28;20043;-86
2022/07/08 06:44:46;;;;;;;8.95;5.70;;;;;;;28.74;52.74;99584.56;5107162;28;20032;-85
2022/07/08 06:47:11;;;;;;;5.63;4.10;;;;;;;28.13;51.24;99596.44;5106798;28;20038;-85
2022/07/08 06:49:37;;;;;;;5.78;3.60;;;;;;;28.12;52.33;99603.72;5107391;28;20023;-85
2022/07/08 06:52:03;;;;;;;4.95;3.17;;;;;;;27.71;51.51;99588.41;5107078;28;20040;-85
2022/07/08 06:54:34;;;;;;;5.63;3.53;;;;;;;27.97;50.06;99576.13;5107023;28;20081;-85
2022/07/08 06:57:01;;;;;;;6.30;3.67;;;;;;;28.12;49.20;99567.63;5107224;28;20089;-85
2022/07/08 06:59:26;;;;;;;4.88;2.92;;;;;;;28.58;47.32;99539.88;5107001;28;20059;-86
2022/07/08 07:01:52;;;;;;;6.53;3.65;;;;;;;29.63;45.17;99583.47;5105841;28;20552;-85
2022/07/08 07:04:18;;;;;;;4.97;3.20;;;;;;;30.24;43.94;99582.03;5107069;28;20043;-86
2022/07/08 07:06:44;;;;;;;4.93;3.08;;;;;;;30.66;44.56;99567.03;5086935;28;20035;-86
2022/07/08 07:09:09;;;;;;;6.70;3.83;;;;;;;30.10;48.54;99580.69;5106958;28;20076;-85
2022/07/08 07:11:35;;;;;;;5.10;3.85;;;;;;;30.56;46.04;99572.56;5106220;28;20081;-86
2022/07/08 07:14:01;;;;;;;5.38;3.50;;;;;;;30.50;42.42;99559.56;5105547;28;20031;-85
2022/07/08 07:16:27;;;;;;;4.43;3.20;;;;;;;30.67;43.82;99569.59;5106213;28;20024;-86
2022/07/08 07:18:52;;;;;;;4.00;2.63;;;;;;;30.54;41.71;99541.94;5087366;28;20037;-86
2022/07/08 07:21:18;;;;;;;3.58;2.72;;;;;;;31.27;40.62;99557.19;5106403;28;20080;-86
2022/07/08 07:23:43;;;;;;;4.75;2.85;;;;;;;31.31;39.38;99574.94;5087714;28;20035;-86
2022/07/08 07:26:09;;;;;;;4.40;3.03;;;;;;;31.47;38.40;99563.25;5106630;28;20035;-87
2022/07/08 07:28:35;;;;;;;4.93;3.00;;;;;;;31.75;37.66;99580.31;5106456;28;20551;-85
2022/07/08 07:31:00;;;;;;;4.32;2.63;;;;;;;31.70;40.07;99551.81;5106663;28;20766;-88
2022/07/08 07:33:26;;;;;;;5.55;3.50;;;;;;;32.06;40.45;99552.47;5106258;28;20028;-86
2022/07/08 07:35:51;;;;;;;3.97;3.17;;;;;;;32.48;40.00;99554.31;5106201;28;20066;-86
2022/07/08 07:38:17;;;;;;;5.13;3.25;;;;;;;32.44;41.58;99517.47;5106506;28;20118;-86
2022/07/08 07:40:43;;;;;;;4.70;3.28;;;;;;;32.74;41.49;99536.97;5106008;28;20036;-86
2022/07/08 07:43:08;;;;;;;5.00;3.45;;;;;;;31.41;43.82;99536.66;5107660;28;20031;-87
2022/07/08 07:45:34;;;;;;;4.20;3.08;;;;;;;31.52;43.39;99530.91;5109782;28;20477;-86
2022/07/08 07:47:59;;;;;;;5.28;3.67;;;;;;;31.98;42.11;99554.31;5110831;28;20063;-87
2022/07/08 07:50:26;;;;;;;5.43;3.17;;;;;;;31.85;40.05;99542.00;5110876;28;20546;-87
2022/07/08 07:52:53;;;;;;;5.45;3.72;;;;;;;32.48;40.05;99558.94;5110254;28;20034;-86
2022/07/08 07:55:18;;;;;;;4.55;2.92;;;;;;;33.25;36.72;99561.38;5110349;28;20035;-86
2022/07/08 07:57:46;;;;;;;4.20;2.50;;;;;;;33.04;38.56;99530.97;5109918;28;20057;-87
2022/07/08 08:00:12;;;;;;;4.68;3.08;;;;;;;33.20;37.83;99536.47;5091813;28;20171;-86
2022/07/08 08:02:39;;;;;;;4.47;2.58;;;;;;;32.51;36.80;99504.00;5109928;28;20023;-86
2022/07/08 08:05:05;;;;;;;5.80;3.17;;;;;;;32.39;37.63;99551.75;5110123;28;20057;-86
2022/07/08 08:07:30;;;;;;;3.42;2.35;;;;;;;32.39;35.69;99521.72;5110339;28;20052;-87
2022/07/08 08:09:56;;;;;;;3.72;2.47;;;;;;;32.46;35.87;99530.97;5109685;28;20035;-88
2022/07/08 08:12:21;;;;;;;3.70;2.63;;;;;;;32.22;38.17;99546.25;5109957;28;20452;-85
2022/07/08 08:14:47;;;;;;;3.63;2.35;;;;;;;32.15;37.30;99514.34;5109378;28;20043;-88
2022/07/08 08:17:12;;;;;;;2.70;2.08;;;;;;;32.25;36.83;99537.72;5110028;28;20028;-86
2022/07/08 08:19:38;;;;;;;4.40;3.05;;;;;;;32.44;37.36;99498.38;5109944;28;20031;-87
2022/07/08 08:22:03;;;;;;;3.28;2.33;;;;;;;32.63;36.14;99526.38;5109815;28;20541;-86
2022/07/08 08:24:29;;;;;;;3.30;2.25;;;;;;;31.73;39.52;99495.09;5109579;28;20497;-87
2022/07/08 08:26:54;;;;;;;5.60;3.15;;;;;;;32.30;38.24;99515.38;5109373;28;20118;-89
2022/07/08 08:29:20;;;;;;;4.47;2.17;;;;;;;32.49;37.44;99536.91;5108894;28;20028;-86
2022/07/08 08:31:45;;;;;;;4.07;2.60;;;;;;;32.45;37.83;99523.78;5109395;28;20124;-85
2022/07/08 08:34:11;;;;;;;4.28;2.28;;;;;;;32.33;36.07;99506.88;5091386;28;20497;-86
2022/07/08 08:36:36;;;;;;;5.95;2.60;;;;;;;32.64;35.67;99496.19;5108929;28;20043;-85
2022/07/08 08:39:02;;;;;;;4.38;2.45;;;;;;;32.52;35.92;99486.59;5109942;28;20493;-84
2022/07/08 08:41:28;;;;;;;3.38;2.00;;;;;;;31.98;36.04;99514.28;5108369;28;20110;-85
2022/07/08 08:43:53;;;;;;;3.75;2.08;;;;;;;32.54;37.07;99511.00;5108311;28;20059;-86
2022/07/08 08:46:23;;;;;;;3.83;2.40;;;;;;;32.31;36.86;99493.38;5107839;28;20024;-86
2022/07/08 08:48:55;;;;;;;2.55;1.90;;;;;;;32.46;36.03;99500.94;5108282;28;20055;-86
2022/07/08 08:51:21;;;;;;;4.00;2.30;;;;;;;32.47;36.67;99492.56;5088934;28;20117;-86
2022/07/08 08:53:47;;;;;;;2.05;1.50;;;;;;;33.14;35.33;99515.28;5088191;28;20909;-86
2022/07/08 08:56:15;;;;;;;3.90;1.95;;;;;;;32.90;36.80;99511.53;5069906;28;20028;-86
2022/07/08 08:58:49;;;;;;;4.70;2.30;;;;;;;33.06;33.59;99490.69;5088348;28;20474;-86
2022/07/08 09:01:16;;;;;;;2.97;2.17;;;;;;;32.40;34.88;99513.38;5088684;28;20043;-86
2022/07/08 09:03:42;;;;;;;2.65;1.98;;;;;;;32.96;35.40;99505.38;5097428;28;20035;-86
2022/07/08 09:06:08;;;;;;;3.78;1.90;;;;;;;33.32;33.91;99515.94;5069915;28;20057;-84
2022/07/08 09:08:33;;;;;;;2.88;2.40;;;;;;;33.43;33.54;99502.91;5088511;28;20036;-86
2022/07/08 09:10:59;;;;;;;3.80;2.20;;;;;;;32.98;33.69;99473.28;5088022;28;20129;-85
2022/07/08 09:13:26;;;;;;;2.90;2.47;;;;;;;32.65;36.33;99459.66;5088062;28;20055;-87
2022/07/08 09:15:59;;;;;;;3.70;2.17;;;;;;;33.25;35.49;99482.13;5088395;28;20118;-86
2022/07/08 09:18:34;;;;;;;3.35;2.05;;;;;;;33.43;34.08;99500.19;5088274;28;20036;-88
2022/07/08 09:21:01;;;;;;;3.35;2.50;;;;;;;32.84;34.85;99495.81;5088062;28;20102;-87
2022/07/08 09:23:35;;;;;;;3.75;1.80;;;;;;;32.73;33.46;99442.41;5087888;28;20024;-86
2022/07/08 09:26:04;;;;;;;3.70;3.03;;;;;;;32.77;36.09;99484.75;5069944;28;20420;-86
2022/07/08 09:28:36;;;;;;;4.40;2.20;;;;;;;32.70;35.13;99469.22;5088147;28;20071;-86
2022/07/08 09:31:06;;;;;;;3.65;2.53;;;;;;;31.98;35.88;99464.31;5070041;28;20081;-86
2022/07/08 09:33:33;;;;;;;3.45;2.30;;;;;;;31.84;36.09;99483.03;5088217;28;20063;-85
2022/07/08 09:36:02;;;;;;;3.38;1.92;;;;;;;31.99;35.95;99447.78;5087785;28;20063;-86
2022/07/08 09:38:29;;;;;;;3.00;1.67;;;;;;;32.36;35.09;99451.09;5087876;28;20024;-87
2022/07/08 09:41:03;;;;;;;4.45;2.60;;;;;;;32.54;35.24;99457.25;5094368;28;20092;-87
2022/07/08 09:43:29;;;;;;;3.35;2.42;;;;;;;32.45;33.91;99434.56;5104077;28;20034;-88
2022/07/08 09:46:05;;;;;;;4.00;3.05;;;;;;;32.63;34.29;99439.00;5108119;28;20517;-84
2022/07/08 09:48:30;;;;;;;5.32;2.63;;;;;;;33.19;32.83;99467.28;5089537;28;20462;-84
2022/07/08 09:50:59;;;;;;;3.28;2.25;;;;;;;32.68;35.00;99428.44;5108057;28;20031;-86
2022/07/08 09:53:27;;;;;;;3.85;2.08;;;;;;;32.84;34.63;99466.66;5107784;28;20122;-88
2022/07/08 09:55:54;;;;;;;3.78;2.33;;;;;;;32.44;35.71;99432.88;5107935;28;20042;-87
2022/07/08 09:58:23;;;;;;;3.05;2.10;;;;;;;32.56;34.48;99459.81;5107797;28;20027;-86
2022/07/08 10:00:50;;;;;;;3.80;2.42;;;;;;;32.71;34.39;99457.28;5108058;28;20038;-87
2022/07/08 10:03:16;;;;;;;4.93;2.17;;;;;;;32.12;37.06;99440.00;5089066;28;20059;-86
2022/07/08 10:05:43;;;;;;;4.03;2.28;;;;;;;32.23;35.72;99411.53;5107264;28;20042;-86
2022/07/08 10:08:09;;;;;;;4.30;2.33;;;;;;;33.34;35.46;99448.28;5106896;28;20573;-87
2022/07/08 10:10:37;;;;;;;4.00;2.90;;;;;;;33.29;33.95;99456.19;5107834;28;20047;-85
2022/07/08 10:13:03;;;;;;;3.72;2.28;;;;;;;32.92;34.36;99434.88;5107784;28;20020;-87
2022/07/08 10:15:32;;;;;;;2.97;1.90;;;;;;;32.50;33.67;99414.94;5107153;28;20031;-90
2022/07/08 10:18:04;;;;;;;2.95;1.95;;;;;;;32.05;36.04;99392.56;5089218;28;20039;-85
2022/07/08 10:20:32;;;;;;;2.15;1.65;;;;;;;31.54;34.24;99424.50;5107560;28;20039;-90
2022/07/08 10:23:03;;;;;;;2.67;1.70;;;;;;;31.95;34.90;99436.38;5107472;28;20031;-86
2022/07/08 10:25:29;;;;;;;3.50;1.85;;;;;;;31.72;35.02;99421.66;5088627;28;20035;-85
2022/07/08 10:28:04;;;;;;;3.22;1.90;;;;;;;31.11;35.40;99402.69;5107146;28;20027;-86
2022/07/08 10:30:50;;;;;;;3.63;1.92;;;;;;;30.97;36.59;99400.50;5088967;28;20035;-83
2022/07/08 10:33:24;;;;;;;2.33;1.45;;;;;;;31.30;35.26;99390.66;5107603;28;20040;-86
2022/07/08 10:36:07;;;;;;;2.90;2.00;;;;;;;31.52;35.15;99389.19;5107588;28;20079;-87
2022/07/08 10:38:40;;;;;;;3.08;2.15;;;;;;;32.02;36.51;99403.81;5107112;28;20118;-87
2022/07/08 10:41:10;;;;;;;2.47;2.05;;;;;;;30.84;36.46;99376.44;5107457;28;20034;-83
2022/07/08 10:43:37;;;;;;;4.50;2.13;;;;;;;31.10;36.14;99390.06;5107398;28;20035;-84
2022/07/08 10:46:11;;;;;;;2.50;1.58;;;;;;;31.19;36.54;99404.59;5107425;28;20032;-83
2022/07/08 10:48:39;;;;;;;2.38;1.40;;;;;;;31.21;37.27;99399.81;5107124;28;20040;-85
2022/07/08 10:51:05;;;;;;;3.58;1.98;;;;;;;31.18;38.37;99370.19;5107627;28;20122;-84
2022/07/08 10:53:48;;;;;;;3.92;2.30;;;;;;;31.22;37.25;99372.41;5106824;28;20032;-83
2022/07/08 10:56:54;;;;;;;4.25;2.83;;;;;;;31.68;36.28;99393.03;5106911;28;20474;-84
2022/07/08 10:59:29;;;;;;;4.57;1.88;;;;;;;31.75;34.92;99392.19;5107247;28;20057;-85
2022/07/08 11:02:11;;;;;;;3.05;2.03;;;;;;;31.89;35.44;99404.31;5092336;28;20521;-85
2022/07/08 11:04:40;;;;;;;3.13;2.00;;;;;;;32.39;34.44;99383.38;5110879;28;20032;-87
2022/07/08 11:07:14;;;;;;;4.47;2.53;;;;;;;32.58;35.70;99375.84;5107231;28;20124;-88
2022/07/08 11:09:41;;;;;;;3.33;1.98;;;;;;;32.81;33.91;99368.69;5107078;28;20027;-86
2022/07/08 11:12:11;;;;;;;2.35;1.60;;;;;;;32.07;34.78;99325.06;5106051;28;20061;-85
2022/07/08 11:14:36;;;;;;;2.65;1.65;;;;;;;32.01;35.68;99384.88;5107112;28;20800;-85
2022/07/08 11:17:02;;;;;;;3.38;1.98;;;;;;;32.16;37.12;99346.91;5106646;28;20035;-84
2022/07/08 11:19:34;;;;;;;3.22;1.88;;;;;;;32.18;35.51;99358.50;5109341;28;20027;-86
2022/07/08 11:22:02;;;;;;;4.20;2.42;;;;;;;31.91;35.63;99364.09;5110987;28;20028;-87
2022/07/08 11:24:28;;;;;;;6.55;3.25;;;;;;;31.53;36.43;99355.47;5110453;28;20032;-83
2022/07/08 11:26:54;;;;;;;3.55;2.22;;;;;;;31.59;35.71;99341.22;5110489;28;20035;-83
2022/07/08 11:29:24;;;;;;;2.55;1.50;;;;;;;31.74;34.48;99357.75;5110726;28;20488;-85
2022/07/08 11:32:00;;;;;;;3.00;1.77;;;;;;;31.68;33.51;99339.34;5110210;28;20019;-86